sensor_id;sensor_type;location;lat;lon;timestamp;pressure;altitude;pressure_sealevel;temperature;humidity
75455;BME280;64035;48.358;2.122;2022-10-22T00:00:50;100213.91;;;13.42;77.66
75455;BME280;64035;48.358;2.122;2022-10-22T00:01:50;100213.09;;;13.43;78.08
75455;BME280;64035;48.358;2.122;2022-10-22T00:02:51;100215.59;;;13.41;78.11
75455;BME280;64035;48.358;2.122;2022-10-22T00:03:51;100214.78;;;13.42;77.92
75455;BME280;64035;48.358;2.122;2022-10-22T00:04:52;100220.75;;;13.41;78.13
75455;BME280;64035;48.358;2.122;2022-10-22T00:05:53;100225.94;;;13.43;78.04
75455;BME280;64035;48.358;2.122;2022-10-22T00:06:55;100218.16;;;13.41;77.75
75455;BME280;64035;48.358;2.122;2022-10-22T00:07:56;100222.41;;;13.39;77.99
75455;BME280;64035;48.358;2.122;2022-10-22T00:08:56;100228.38;;;13.38;78.11
75455;BME280;64035;48.358;2.122;2022-10-22T00:09:57;100218.91;;;13.37;78.13
75455;BME280;64035;48.358;2.122;2022-10-22T00:10:57;100220.66;;;13.38;77.92
75455;BME280;64035;48.358;2.122;2022-10-22T00:11:58;100229.19;;;13.37;78.02
75455;BME280;64035;48.358;2.122;2022-10-22T00:12:58;100234.38;;;13.39;78.24
75455;BME280;64035;48.358;2.122;2022-10-22T00:13:59;100232.72;;;13.41;78.06
75455;BME280;64035;48.358;2.122;2022-10-22T00:14:59;100231.00;;;13.40;78.28
75455;BME280;64035;48.358;2.122;2022-10-22T00:15:59;100233.56;;;13.40;77.80
75455;BME280;64035;48.358;2.122;2022-10-22T00:17:00;100232.69;;;13.39;78.31
75455;BME280;64035;48.358;2.122;2022-10-22T00:18:00;100224.09;;;13.39;78.44
75455;BME280;64035;48.358;2.122;2022-10-22T00:19:01;100233.59;;;13.41;77.95
75455;BME280;64035;48.358;2.122;2022-10-22T00:20:02;100237.97;;;13.44;77.99
75455;BME280;64035;48.358;2.122;2022-10-22T00:21:03;100232.84;;;13.44;77.73
75455;BME280;64035;48.358;2.122;2022-10-22T00:22:03;100233.72;;;13.44;78.01
75455;BME280;64035;48.358;2.122;2022-10-22T00:23:04;100238.84;;;13.44;78.23
75455;BME280;64035;48.358;2.122;2022-10-22T00:24:05;100242.25;;;13.43;78.09
75455;BME280;64035;48.358;2.122;2022-10-22T00:25:05;100235.28;;;13.39;78.09
75455;BME280;64035;48.358;2.122;2022-10-22T00:26:06;100235.41;;;13.44;78.16
75455;BME280;64035;48.358;2.122;2022-10-22T00:27:10;100237.97;;;13.44;78.18
75455;BME280;64035;48.358;2.122;2022-10-22T00:28:11;100231.13;;;13.44;78.09
75455;BME280;64035;48.358;2.122;2022-10-22T00:29:11;100236.16;;;13.41;78.16
75455;BME280;64035;48.358;2.122;2022-10-22T00:30:12;100236.22;;;13.43;78.02
75455;BME280;64035;48.358;2.122;2022-10-22T00:31:12;100244.81;;;13.43;78.26
75455;BME280;64035;48.358;2.122;2022-10-22T00:32:14;100242.25;;;13.43;78.36
75455;BME280;64035;48.358;2.122;2022-10-22T00:33:15;100237.09;;;13.43;77.93
75455;BME280;64035;48.358;2.122;2022-10-22T00:34:17;100239.63;;;13.42;78.42
75455;BME280;64035;48.358;2.122;2022-10-22T00:35:19;100243.88;;;13.41;78.32
75455;BME280;64035;48.358;2.122;2022-10-22T00:36:19;100236.16;;;13.40;78.21
75455;BME280;64035;48.358;2.122;2022-10-22T00:37:20;100249.13;;;13.44;78.57
75455;BME280;64035;48.358;2.122;2022-10-22T00:38:20;100246.50;;;13.43;78.58
75455;BME280;64035;48.358;2.122;2022-10-22T00:39:24;100237.97;;;13.44;78.32
75455;BME280;64035;48.358;2.122;2022-10-22T00:40:25;100245.75;;;13.45;78.55
75455;BME280;64035;48.358;2.122;2022-10-22T00:41:25;100249.09;;;13.43;78.24
75455;BME280;64035;48.358;2.122;2022-10-22T00:42:26;100252.47;;;13.42;78.37
75455;BME280;64035;48.358;2.122;2022-10-22T00:43:29;100244.81;;;13.43;78.08
75455;BME280;64035;48.358;2.122;2022-10-22T00:46:04;100255.97;;;13.44;78.56
75455;BME280;64035;48.358;2.122;2022-10-22T00:47:04;100247.31;;;13.42;78.44
75455;BME280;64035;48.358;2.122;2022-10-22T00:48:08;100252.41;;;13.40;78.41
75455;BME280;64035;48.358;2.122;2022-10-22T00:49:10;100252.41;;;13.40;78.53
75455;BME280;64035;48.358;2.122;2022-10-22T00:50:25;100258.44;;;13.41;78.38
75455;BME280;64035;48.358;2.122;2022-10-22T00:51:29;100257.56;;;13.40;78.50
75455;BME280;64035;48.358;2.122;2022-10-22T00:52:31;100261.88;;;13.41;78.62
75455;BME280;64035;48.358;2.122;2022-10-22T00:53:36;100269.59;;;13.41;78.45
75455;BME280;64035;48.358;2.122;2022-10-22T00:54:38;100259.28;;;13.40;78.49
75455;BME280;64035;48.358;2.122;2022-10-22T00:55:40;100258.44;;;13.41;78.41
75455;BME280;64035;48.358;2.122;2022-10-22T00:56:45;100265.25;;;13.40;78.15
75455;BME280;64035;48.358;2.122;2022-10-22T00:57:46;100261.84;;;13.40;78.29
75455;BME280;64035;48.358;2.122;2022-10-22T00:58:53;100267.03;;;13.41;78.37
75455;BME280;64035;48.358;2.122;2022-10-22T00:59:55;100260.97;;;13.39;78.47
75455;BME280;64035;48.358;2.122;2022-10-22T01:00:56;100263.56;;;13.39;78.34
75455;BME280;64035;48.358;2.122;2022-10-22T01:01:59;100267.84;;;13.40;78.48
75455;BME280;64035;48.358;2.122;2022-10-22T01:03:00;100276.41;;;13.39;78.51
75455;BME280;64035;48.358;2.122;2022-10-22T01:04:00;100278.97;;;13.39;78.59
75455;BME280;64035;48.358;2.122;2022-10-22T01:05:01;100275.53;;;13.39;78.77
75455;BME280;64035;48.358;2.122;2022-10-22T01:06:04;100277.28;;;13.40;78.66
75455;BME280;64035;48.358;2.122;2022-10-22T01:07:04;100273.78;;;13.38;78.56
75455;BME280;64035;48.358;2.122;2022-10-22T01:08:12;100276.34;;;13.38;78.51
75455;BME280;64035;48.358;2.122;2022-10-22T01:12:08;100289.19;;;13.38;78.71
75455;BME280;64035;48.358;2.122;2022-10-22T01:13:26;100290.00;;;13.37;78.64
75455;BME280;64035;48.358;2.122;2022-10-22T01:14:35;100286.56;;;13.36;78.69
75455;BME280;64035;48.358;2.122;2022-10-22T01:15:50;100283.94;;;13.35;78.81
75455;BME280;64035;48.358;2.122;2022-10-22T01:17:16;100287.38;;;13.35;78.01
75455;BME280;64035;48.358;2.122;2022-10-22T01:18:37;100282.25;;;13.35;78.81
75455;BME280;64035;48.358;2.122;2022-10-22T01:21:02;100292.53;;;13.35;78.07
75455;BME280;64035;48.358;2.122;2022-10-22T01:22:29;100283.06;;;13.34;78.69
75455;BME280;64035;48.358;2.122;2022-10-22T01:26:11;100300.09;;;13.31;78.54
75455;BME280;64035;48.358;2.122;2022-10-22T01:27:29;100303.53;;;13.31;78.74
75455;BME280;64035;48.358;2.122;2022-10-22T01:30:09;100303.59;;;13.33;78.42
75455;BME280;64035;48.358;2.122;2022-10-22T01:31:12;100307.00;;;13.32;78.50
75455;BME280;64035;48.358;2.122;2022-10-22T01:32:17;100309.56;;;13.32;78.47
75455;BME280;64035;48.358;2.122;2022-10-22T01:33:21;100303.47;;;13.29;78.62
75455;BME280;64035;48.358;2.122;2022-10-22T01:34:24;100314.69;;;13.32;78.54
75455;BME280;64035;48.358;2.122;2022-10-22T01:35:28;100309.50;;;13.30;78.32
75455;BME280;64035;48.358;2.122;2022-10-22T01:36:31;100306.88;;;13.28;78.63
75455;BME280;64035;48.358;2.122;2022-10-22T01:37:42;100304.22;;;13.27;78.97
75455;BME280;64035;48.358;2.122;2022-10-22T01:38:45;100312.00;;;13.28;78.67
75455;BME280;64035;48.358;2.122;2022-10-22T01:39:46;100308.50;;;13.26;78.76
75455;BME280;64035;48.358;2.122;2022-10-22T01:40:48;100311.94;;;13.27;78.14
75455;BME280;64035;48.358;2.122;2022-10-22T01:41:49;100319.59;;;13.25;78.34
75455;BME280;64035;48.358;2.122;2022-10-22T01:42:58;100317.00;;;13.24;78.55
75455;BME280;64035;48.358;2.122;2022-10-22T01:43:58;100314.47;;;13.25;78.69
75455;BME280;64035;48.358;2.122;2022-10-22T01:44:59;100317.91;;;13.26;78.27
75455;BME280;64035;48.358;2.122;2022-10-22T01:46:04;100310.09;;;13.23;78.37
75455;BME280;64035;48.358;2.122;2022-10-22T01:50:38;100316.88;;;13.21;78.36
75455;BME280;64035;48.358;2.122;2022-10-22T01:52:05;100310.81;;;13.19;78.38
75455;BME280;64035;48.358;2.122;2022-10-22T01:53:26;100309.91;;;13.18;78.46
75455;BME280;64035;48.358;2.122;2022-10-22T02:00:37;100316.66;;;13.15;78.30
75455;BME280;64035;48.358;2.122;2022-10-22T02:01:47;100314.81;;;13.12;78.24
75455;BME280;64035;48.358;2.122;2022-10-22T02:04:10;100319.03;;;13.10;78.35
75455;BME280;64035;48.358;2.122;2022-10-22T02:06:32;100318.03;;;13.07;78.44
75455;BME280;64035;48.358;2.122;2022-10-22T02:07:45;100324.13;;;13.09;78.33
75455;BME280;64035;48.358;2.122;2022-10-22T02:08:48;100326.56;;;13.06;78.47
75455;BME280;64035;48.358;2.122;2022-10-22T02:09:50;100321.34;;;13.03;78.46
75455;BME280;64035;48.358;2.122;2022-10-22T02:10:52;100335.97;;;13.05;78.69
75455;BME280;64035;48.358;2.122;2022-10-22T02:11:55;100332.59;;;13.06;78.47
75455;BME280;64035;48.358;2.122;2022-10-22T02:12:57;100327.34;;;13.03;78.65
75455;BME280;64035;48.358;2.122;2022-10-22T02:14:02;100330.84;;;13.05;78.34
75455;BME280;64035;48.358;2.122;2022-10-22T02:15:04;100331.63;;;13.03;78.34
75455;BME280;64035;48.358;2.122;2022-10-22T02:16:07;100336.75;;;13.03;78.31
75455;BME280;64035;48.358;2.122;2022-10-22T02:17:13;100341.91;;;13.03;78.32
75455;BME280;64035;48.358;2.122;2022-10-22T02:18:16;100328.16;;;13.02;78.66
75455;BME280;64035;48.358;2.122;2022-10-22T02:19:26;100330.84;;;13.05;78.36
75455;BME280;64035;48.358;2.122;2022-10-22T02:20:30;100327.34;;;13.03;78.24
75455;BME280;64035;48.358;2.122;2022-10-22T02:21:31;100326.50;;;13.04;78.29
75455;BME280;64035;48.358;2.122;2022-10-22T02:22:32;100332.53;;;13.05;78.44
75455;BME280;64035;48.358;2.122;2022-10-22T02:23:33;100334.13;;;13.01;78.38
75455;BME280;64035;48.358;2.122;2022-10-22T02:24:33;100328.09;;;13.01;78.25
75455;BME280;64035;48.358;2.122;2022-10-22T02:25:37;100333.25;;;13.01;78.43
75455;BME280;64035;48.358;2.122;2022-10-22T02:26:44;100339.31;;;13.03;78.32
75455;BME280;64035;48.358;2.122;2022-10-22T02:27:52;100338.44;;;13.02;78.42
75455;BME280;64035;48.358;2.122;2022-10-22T02:29:19;100341.78;;;13.00;78.44
75455;BME280;64035;48.358;2.122;2022-10-22T02:30:22;100340.09;;;13.00;78.30
75455;BME280;64035;48.358;2.122;2022-10-22T02:31:30;100335.81;;;13.01;78.25
75455;BME280;64035;48.358;2.122;2022-10-22T02:32:40;100340.00;;;12.99;78.71
75455;BME280;64035;48.358;2.122;2022-10-22T02:33:45;100338.44;;;13.02;78.52
75455;BME280;64035;48.358;2.122;2022-10-22T02:34:48;100335.88;;;13.02;78.75
75455;BME280;64035;48.358;2.122;2022-10-22T02:35:50;100338.50;;;13.04;78.48
75455;BME280;64035;48.358;2.122;2022-10-22T02:36:51;100341.91;;;13.03;78.41
75455;BME280;64035;48.358;2.122;2022-10-22T02:37:55;100342.72;;;13.02;78.74
75455;BME280;64035;48.358;2.122;2022-10-22T02:38:56;100340.97;;;13.01;78.57
75455;BME280;64035;48.358;2.122;2022-10-22T02:39:57;100346.97;;;13.01;78.75
75455;BME280;64035;48.358;2.122;2022-10-22T02:40:58;100339.25;;;13.01;78.41
75455;BME280;64035;48.358;2.122;2022-10-22T02:42:01;100344.41;;;13.01;78.70
75455;BME280;64035;48.358;2.122;2022-10-22T02:43:05;100344.34;;;13.00;78.53
75455;BME280;64035;48.358;2.122;2022-10-22T02:44:06;100342.59;;;12.99;78.78
75455;BME280;64035;48.358;2.122;2022-10-22T02:45:08;100348.66;;;13.01;78.80
75455;BME280;64035;48.358;2.122;2022-10-22T02:46:09;100348.66;;;13.01;78.64
75455;BME280;64035;48.358;2.122;2022-10-22T02:47:10;100337.38;;;12.97;78.82
75455;BME280;64035;48.358;2.122;2022-10-22T02:48:10;100339.94;;;12.97;78.92
75455;BME280;64035;48.358;2.122;2022-10-22T02:49:11;100342.66;;;13.00;78.81
75455;BME280;64035;48.358;2.122;2022-10-22T02:50:11;100346.09;;;13.01;78.88
75455;BME280;64035;48.358;2.122;2022-10-22T02:51:12;100349.47;;;13.00;78.85
75455;BME280;64035;48.358;2.122;2022-10-22T02:52:12;100347.72;;;12.99;78.75
75455;BME280;64035;48.358;2.122;2022-10-22T02:53:15;100358.13;;;13.02;78.70
75455;BME280;64035;48.358;2.122;2022-10-22T02:54:15;100354.63;;;13.00;78.88
75455;BME280;64035;48.358;2.122;2022-10-22T02:55:16;100349.47;;;13.00;78.79
75455;BME280;64035;48.358;2.122;2022-10-22T02:56:16;100352.09;;;13.01;78.86
75455;BME280;64035;48.358;2.122;2022-10-22T02:57:17;100355.44;;;12.99;78.79
75455;BME280;64035;48.358;2.122;2022-10-22T02:58:17;100359.75;;;13.00;78.89
75455;BME280;64035;48.358;2.122;2022-10-22T02:59:17;100357.13;;;12.98;79.28
75455;BME280;64035;48.358;2.122;2022-10-22T03:00:18;100361.50;;;13.01;78.99
75455;BME280;64035;48.358;2.122;2022-10-22T03:01:18;100354.69;;;13.01;78.69
75455;BME280;64035;48.358;2.122;2022-10-22T03:02:19;100353.81;;;13.01;78.98
75455;BME280;64035;48.358;2.122;2022-10-22T03:03:19;100364.91;;;13.00;78.75
75455;BME280;64035;48.358;2.122;2022-10-22T03:04:25;100360.63;;;13.00;78.89
75455;BME280;64035;48.358;2.122;2022-10-22T03:05:29;100352.06;;;13.00;78.88
75455;BME280;64035;48.358;2.122;2022-10-22T03:06:29;100359.81;;;13.01;79.14
75455;BME280;64035;48.358;2.122;2022-10-22T03:07:30;100357.25;;;13.01;78.90
75455;BME280;64035;48.358;2.122;2022-10-22T03:08:30;100363.97;;;12.98;79.07
75455;BME280;64035;48.358;2.122;2022-10-22T03:09:31;100366.53;;;12.98;79.00
75455;BME280;64035;48.358;2.122;2022-10-22T03:10:31;100361.38;;;12.98;78.97
75455;BME280;64035;48.358;2.122;2022-10-22T03:11:40;100363.13;;;12.99;79.00
75455;BME280;64035;48.358;2.122;2022-10-22T03:12:43;100363.13;;;12.99;78.96
75455;BME280;64035;48.358;2.122;2022-10-22T03:13:46;100360.56;;;12.99;79.07
75455;BME280;64035;48.358;2.122;2022-10-22T03:14:46;100371.66;;;12.98;79.26
75455;BME280;64035;48.358;2.122;2022-10-22T03:15:48;100371.63;;;12.96;79.65
75455;BME280;64035;48.358;2.122;2022-10-22T03:16:49;100379.28;;;12.95;79.48
75455;BME280;64035;48.358;2.122;2022-10-22T03:17:52;100374.06;;;12.93;79.46
75455;BME280;64035;48.358;2.122;2022-10-22T03:18:52;100367.25;;;12.94;78.87
75455;BME280;64035;48.358;2.122;2022-10-22T03:19:53;100374.13;;;12.95;79.06
75455;BME280;64035;48.358;2.122;2022-10-22T03:21:08;100374.13;;;12.95;79.16
75455;BME280;64035;48.358;2.122;2022-10-22T03:22:16;100373.31;;;12.96;79.22
75455;BME280;64035;48.358;2.122;2022-10-22T03:23:19;100371.56;;;12.95;79.25
75455;BME280;64035;48.358;2.122;2022-10-22T03:24:40;100380.25;;;12.98;79.36
75455;BME280;64035;48.358;2.122;2022-10-22T03:25:42;100381.91;;;12.96;79.19
75455;BME280;64035;48.358;2.122;2022-10-22T03:26:44;100381.84;;;12.95;78.81
75455;BME280;64035;48.358;2.122;2022-10-22T03:27:46;100380.22;;;12.97;78.67
75455;BME280;64035;48.358;2.122;2022-10-22T03:28:47;100377.69;;;12.98;78.97
75455;BME280;64035;48.358;2.122;2022-10-22T03:29:49;100376.00;;;12.99;78.81
75455;BME280;64035;48.358;2.122;2022-10-22T03:30:50;100377.69;;;12.98;79.06
75455;BME280;64035;48.358;2.122;2022-10-22T03:31:52;100383.63;;;12.97;79.09
75455;BME280;64035;48.358;2.122;2022-10-22T03:32:52;100384.56;;;12.99;78.84
75455;BME280;64035;48.358;2.122;2022-10-22T03:33:53;100381.06;;;12.97;78.95
75455;BME280;64035;48.358;2.122;2022-10-22T03:34:53;100386.25;;;12.99;79.01
75455;BME280;64035;48.358;2.122;2022-10-22T03:35:53;100381.13;;;12.99;79.02
75455;BME280;64035;48.358;2.122;2022-10-22T03:36:56;100386.19;;;12.97;79.13
75455;BME280;64035;48.358;2.122;2022-10-22T03:37:59;100382.78;;;12.97;79.03
75455;BME280;64035;48.358;2.122;2022-10-22T03:39:01;100391.41;;;12.99;79.24
75455;BME280;64035;48.358;2.122;2022-10-22T03:40:03;100387.97;;;12.98;79.17
75455;BME280;64035;48.358;2.122;2022-10-22T03:41:04;100387.16;;;12.99;79.23
75455;BME280;64035;48.358;2.122;2022-10-22T03:42:05;100387.97;;;12.98;79.02
75455;BME280;64035;48.358;2.122;2022-10-22T03:43:09;100389.72;;;12.99;79.25
75455;BME280;64035;48.358;2.122;2022-10-22T03:44:10;100393.22;;;13.01;79.31
75455;BME280;64035;48.358;2.122;2022-10-22T03:45:11;100395.78;;;13.01;79.26
75455;BME280;64035;48.358;2.122;2022-10-22T03:46:11;100395.84;;;13.03;79.18
75455;BME280;64035;48.358;2.122;2022-10-22T03:47:12;100383.75;;;13.00;79.26
75455;BME280;64035;48.358;2.122;2022-10-22T03:48:13;100390.72;;;13.03;79.26
75455;BME280;64035;48.358;2.122;2022-10-22T03:49:13;100389.84;;;13.02;79.21
75455;BME280;64035;48.358;2.122;2022-10-22T03:50:14;100387.22;;;13.01;79.27
75455;BME280;64035;48.358;2.122;2022-10-22T03:51:14;100394.09;;;13.02;78.96
75455;BME280;64035;48.358;2.122;2022-10-22T03:52:15;100397.56;;;13.02;79.20
75455;BME280;64035;48.358;2.122;2022-10-22T03:53:15;100392.28;;;12.99;79.40
75455;BME280;64035;48.358;2.122;2022-10-22T03:54:16;100400.88;;;13.00;79.28
75455;BME280;64035;48.358;2.122;2022-10-22T03:55:16;100401.69;;;12.99;79.46
75455;BME280;64035;48.358;2.122;2022-10-22T03:56:17;100395.78;;;13.01;79.50
75455;BME280;64035;48.358;2.122;2022-10-22T03:57:17;100406.00;;;13.00;79.41
75455;BME280;64035;48.358;2.122;2022-10-22T03:58:20;100406.06;;;13.01;79.88
75455;BME280;64035;48.358;2.122;2022-10-22T03:59:24;100400.88;;;13.00;79.37
75455;BME280;64035;48.358;2.122;2022-10-22T04:00:24;100399.19;;;13.00;79.56
75455;BME280;64035;48.358;2.122;2022-10-22T04:01:25;100405.06;;;12.98;80.00
75455;BME280;64035;48.358;2.122;2022-10-22T04:02:26;100409.38;;;12.99;79.81
75455;BME280;64035;48.358;2.122;2022-10-22T04:03:27;100411.16;;;13.00;79.45
75455;BME280;64035;48.358;2.122;2022-10-22T04:04:27;100411.97;;;12.99;79.76
75455;BME280;64035;48.358;2.122;2022-10-22T04:05:28;100410.19;;;12.98;80.02
75455;BME280;64035;48.358;2.122;2022-10-22T04:06:29;100411.16;;;13.00;80.06
75455;BME280;64035;48.358;2.122;2022-10-22T04:07:29;100410.34;;;13.01;79.74
75455;BME280;64035;48.358;2.122;2022-10-22T04:08:30;100408.50;;;12.98;79.82
75455;BME280;64035;48.358;2.122;2022-10-22T04:09:31;100415.47;;;13.01;79.85
75455;BME280;64035;48.358;2.122;2022-10-22T04:10:32;100414.53;;;12.99;80.42
75455;BME280;64035;48.358;2.122;2022-10-22T04:11:32;100416.28;;;13.00;80.40
75455;BME280;64035;48.358;2.122;2022-10-22T04:12:32;100417.22;;;13.02;79.85
75455;BME280;64035;48.358;2.122;2022-10-22T04:13:33;100420.75;;;13.04;80.05
75455;BME280;64035;48.358;2.122;2022-10-22T04:14:34;100413.78;;;13.01;80.06
75455;BME280;64035;48.358;2.122;2022-10-22T04:15:34;100413.88;;;13.04;79.80
75455;BME280;64035;48.358;2.122;2022-10-22T04:16:35;100413.03;;;13.04;80.03
75455;BME280;64035;48.358;2.122;2022-10-22T04:17:35;100419.00;;;13.04;80.05
75455;BME280;64035;48.358;2.122;2022-10-22T04:18:37;100418.97;;;13.03;80.09
75455;BME280;64035;48.358;2.122;2022-10-22T04:19:40;100417.22;;;13.02;80.12
75455;BME280;64035;48.358;2.122;2022-10-22T04:20:44;100421.56;;;13.03;80.32
75455;BME280;64035;48.358;2.122;2022-10-22T04:21:44;100421.56;;;13.03;80.09
75455;BME280;64035;48.358;2.122;2022-10-22T04:22:44;100425.81;;;13.02;80.13
75455;BME280;64035;48.358;2.122;2022-10-22T04:23:47;100421.56;;;13.03;80.04
75455;BME280;64035;48.358;2.122;2022-10-22T04:24:47;100425.03;;;13.05;80.29
75455;BME280;64035;48.358;2.122;2022-10-22T04:25:48;100419.72;;;13.00;80.46
75455;BME280;64035;48.358;2.122;2022-10-22T04:26:48;100420.53;;;12.99;80.22
75455;BME280;64035;48.358;2.122;2022-10-22T04:27:48;100428.44;;;13.04;80.23
75455;BME280;64035;48.358;2.122;2022-10-22T04:28:50;100428.19;;;12.98;80.59
75455;BME280;64035;48.358;2.122;2022-10-22T04:29:51;100425.75;;;13.01;80.04
75455;BME280;64035;48.358;2.122;2022-10-22T04:30:51;100431.88;;;13.04;80.01
75455;BME280;64035;48.358;2.122;2022-10-22T04:31:52;100428.47;;;13.05;80.20
75455;BME280;64035;48.358;2.122;2022-10-22T04:32:52;100431.94;;;13.06;80.13
75455;BME280;64035;48.358;2.122;2022-10-22T04:33:54;100432.72;;;13.03;80.51
75455;BME280;64035;48.358;2.122;2022-10-22T04:34:55;100432.72;;;13.03;80.73
75455;BME280;64035;48.358;2.122;2022-10-22T04:35:55;100432.72;;;13.03;80.36
75455;BME280;64035;48.358;2.122;2022-10-22T04:36:56;100429.25;;;13.03;80.09
75455;BME280;64035;48.358;2.122;2022-10-22T04:37:56;100433.63;;;13.05;80.03
75455;BME280;64035;48.358;2.122;2022-10-22T04:38:59;100432.66;;;13.02;80.70
75455;BME280;64035;48.358;2.122;2022-10-22T04:39:59;100432.72;;;13.03;80.00
75455;BME280;64035;48.358;2.122;2022-10-22T04:41:21;100436.97;;;13.03;80.41
75455;BME280;64035;48.358;2.122;2022-10-22T04:42:21;100439.41;;;13.00;80.49
75455;BME280;64035;48.358;2.122;2022-10-22T04:43:21;100442.78;;;12.99;80.38
75455;BME280;64035;48.358;2.122;2022-10-22T04:44:24;100438.53;;;12.99;80.24
75455;BME280;64035;48.358;2.122;2022-10-22T04:45:25;100441.22;;;13.02;80.12
75455;BME280;64035;48.358;2.122;2022-10-22T04:46:27;100440.41;;;13.03;79.91
75455;BME280;64035;48.358;2.122;2022-10-22T04:47:28;100439.53;;;13.03;79.69
75455;BME280;64035;48.358;2.122;2022-10-22T04:48:28;100434.41;;;13.03;80.21
75455;BME280;64035;48.358;2.122;2022-10-22T04:49:29;100443.72;;;13.01;79.84
75455;BME280;64035;48.358;2.122;2022-10-22T04:50:29;100438.53;;;12.99;79.90
75455;BME280;64035;48.358;2.122;2022-10-22T04:51:30;100442.03;;;13.01;80.15
75455;BME280;64035;48.358;2.122;2022-10-22T04:52:31;100444.72;;;13.04;79.73
75455;BME280;64035;48.358;2.122;2022-10-22T04:53:32;100437.88;;;13.05;79.86
75455;BME280;64035;48.358;2.122;2022-10-22T04:54:34;100449.03;;;13.05;79.92
75455;BME280;64035;48.358;2.122;2022-10-22T04:55:35;100446.38;;;13.02;79.82
75455;BME280;64035;48.358;2.122;2022-10-22T04:56:35;100444.63;;;13.01;79.91
75455;BME280;64035;48.358;2.122;2022-10-22T04:57:35;100442.03;;;13.01;79.83
75455;BME280;64035;48.358;2.122;2022-10-22T04:58:36;100448.88;;;13.01;79.71
75455;BME280;64035;48.358;2.122;2022-10-22T04:59:37;100451.38;;;12.99;79.70
75455;BME280;64035;48.358;2.122;2022-10-22T05:00:37;100445.34;;;12.99;79.43
75455;BME280;64035;48.358;2.122;2022-10-22T05:01:41;100444.47;;;12.98;79.74
75455;BME280;64035;48.358;2.122;2022-10-22T05:02:41;100451.31;;;12.98;79.74
75455;BME280;64035;48.358;2.122;2022-10-22T05:03:44;100446.31;;;13.01;79.55
75455;BME280;64035;48.358;2.122;2022-10-22T05:04:47;100441.91;;;12.98;79.70
75455;BME280;64035;48.358;2.122;2022-10-22T05:05:47;100454.75;;;12.98;79.56
75455;BME280;64035;48.358;2.122;2022-10-22T05:06:50;100447.06;;;12.98;79.62
75455;BME280;64035;48.358;2.122;2022-10-22T05:07:51;100455.63;;;12.99;79.58
75455;BME280;64035;48.358;2.122;2022-10-22T05:08:54;100450.44;;;12.97;79.69
75455;BME280;64035;48.358;2.122;2022-10-22T05:09:54;100451.28;;;12.96;79.36
75455;BME280;64035;48.358;2.122;2022-10-22T05:10:55;100451.31;;;12.98;79.28
75455;BME280;64035;48.358;2.122;2022-10-22T05:11:55;100456.28;;;12.93;79.27
75455;BME280;64035;48.358;2.122;2022-10-22T05:12:55;100453.66;;;12.91;79.52
75455;BME280;64035;48.358;2.122;2022-10-22T05:13:57;100453.78;;;12.95;79.66
75455;BME280;64035;48.358;2.122;2022-10-22T05:14:58;100450.28;;;12.93;79.55
75455;BME280;64035;48.358;2.122;2022-10-22T05:16:00;100460.53;;;12.93;79.54
75455;BME280;64035;48.358;2.122;2022-10-22T05:17:00;100449.31;;;12.90;79.58
75455;BME280;64035;48.358;2.122;2022-10-22T05:18:01;100457.91;;;12.91;79.33
75455;BME280;64035;48.358;2.122;2022-10-22T05:19:05;100451.88;;;12.89;79.60
75455;BME280;64035;48.358;2.122;2022-10-22T05:20:06;100455.41;;;12.93;79.38
75455;BME280;64035;48.358;2.122;2022-10-22T05:21:08;100456.22;;;12.91;79.37
75455;BME280;64035;48.358;2.122;2022-10-22T05:22:09;100450.97;;;12.88;79.40
75455;BME280;64035;48.358;2.122;2022-10-22T05:23:09;100456.94;;;12.87;79.56
75455;BME280;64035;48.358;2.122;2022-10-22T05:24:13;100461.19;;;12.87;79.32
75455;BME280;64035;48.358;2.122;2022-10-22T05:25:13;100462.81;;;12.85;79.35
75455;BME280;64035;48.358;2.122;2022-10-22T05:26:18;100460.31;;;12.86;79.11
75455;BME280;64035;48.358;2.122;2022-10-22T05:27:19;100466.25;;;12.85;79.16
75455;BME280;64035;48.358;2.122;2022-10-22T05:28:20;100464.50;;;12.84;79.52
75455;BME280;64035;48.358;2.122;2022-10-22T05:29:20;100467.00;;;12.83;79.38
75455;BME280;64035;48.358;2.122;2022-10-22T05:30:21;100466.97;;;12.81;79.39
75455;BME280;64035;48.358;2.122;2022-10-22T05:31:21;100463.56;;;12.82;79.29
75455;BME280;64035;48.358;2.122;2022-10-22T05:32:22;100460.88;;;12.79;79.19
75455;BME280;64035;48.358;2.122;2022-10-22T05:33:22;100463.47;;;12.79;79.55
75455;BME280;64035;48.358;2.122;2022-10-22T05:34:23;100466.03;;;12.79;78.99
75455;BME280;64035;48.358;2.122;2022-10-22T05:35:23;100472.91;;;12.80;79.37
75455;BME280;64035;48.358;2.122;2022-10-22T05:36:24;100465.91;;;12.76;79.37
75455;BME280;64035;48.358;2.122;2022-10-22T05:37:28;100465.06;;;12.77;79.32
75455;BME280;64035;48.358;2.122;2022-10-22T05:38:28;100473.66;;;12.78;79.26
75455;BME280;64035;48.358;2.122;2022-10-22T05:39:28;100465.91;;;12.76;79.33
75455;BME280;64035;48.358;2.122;2022-10-22T05:40:38;100468.44;;;12.75;79.36
75455;BME280;64035;48.358;2.122;2022-10-22T05:41:38;100470.94;;;12.73;79.15
75455;BME280;64035;48.358;2.122;2022-10-22T05:42:41;100469.16;;;12.72;79.28
75455;BME280;64035;48.358;2.122;2022-10-22T05:43:41;100473.50;;;12.73;79.27
75455;BME280;64035;48.358;2.122;2022-10-22T05:44:42;100470.78;;;12.70;79.37
75455;BME280;64035;48.358;2.122;2022-10-22T05:45:42;100479.44;;;12.72;79.16
75455;BME280;64035;48.358;2.122;2022-10-22T05:46:42;100472.63;;;12.73;79.28
75455;BME280;64035;48.358;2.122;2022-10-22T05:47:43;100476.81;;;12.71;78.95
75455;BME280;64035;48.358;2.122;2022-10-22T05:48:43;100477.69;;;12.71;79.19
75455;BME280;64035;48.358;2.122;2022-10-22T05:49:47;100476.88;;;12.72;79.08